sensor_id;sensor_type;location;lat;lon;timestamp;temperature;humidity
2621;DHT22;1320;48.128;11.592;2022-11-15T00:00:16;7.90;99.90
2621;DHT22;1320;48.128;11.592;2022-11-15T00:02:42;7.80;99.90
2621;DHT22;1320;48.128;11.592;2022-11-15T00:05:08;7.80;99.90
2621;DHT22;1320;48.128;11.592;2022-11-15T00:07:33;7.80;99.90
2621;DHT22;1320;48.128;11.592;2022-11-15T00:09:59;7.80;99.90
2621;DHT22;1320;48.128;11.592;2022-11-15T00:12:26;7.80;99.90
2621;DHT22;1320;48.128;11.592;2022-11-15T00:14:52;7.70;99.90
2621;DHT22;1320;48.128;11.592;2022-11-15T00:17:17;7.70;99.90
2621;DHT22;1320;48.128;11.592;2022-11-15T00:19:43;7.70;99.90
2621;DHT22;1320;48.128;11.592;2022-11-15T00:22:09;7.70;99.90
2621;DHT22;1320;48.128;11.592;2022-11-15T00:24:34;7.70;99.90
2621;DHT22;1320;48.128;11.592;2022-11-15T00:27:00;7.70;99.90
2621;DHT22;1320;48.128;11.592;2022-11-15T00:29:25;7.70;99.90
2621;DHT22;1320;48.128;11.592;2022-11-15T00:31:51;7.70;99.90
2621;DHT22;1320;48.128;11.592;2022-11-15T00:34:18;7.70;99.90
2621;DHT22;1320;48.128;11.592;2022-11-15T00:36:44;7.70;99.90
2621;DHT22;1320;48.128;11.592;2022-11-15T00:39:09;7.60;99.90
2621;DHT22;1320;48.128;11.592;2022-11-15T00:41:35;7.60;99.90
2621;DHT22;1320;48.128;11.592;2022-11-15T00:44:01;7.50;99.90
2621;DHT22;1320;48.128;11.592;2022-11-15T00:46:26;7.50;99.90
2621;DHT22;1320;48.128;11.592;2022-11-15T00:48:52;7.50;99.90
2621;DHT22;1320;48.128;11.592;2022-11-15T00:51:18;7.50;99.90
2621;DHT22;1320;48.128;11.592;2022-11-15T00:53:43;7.50;99.90
2621;DHT22;1320;48.128;11.592;2022-11-15T00:56:09;7.50;99.90
2621;DHT22;1320;48.128;11.592;2022-11-15T00:58:34;7.50;99.90
2621;DHT22;1320;48.128;11.592;2022-11-15T01:01:11;7.50;99.90
2621;DHT22;1320;48.128;11.592;2022-11-15T01:03:39;7.50;99.90
2621;DHT22;1320;48.128;11.592;2022-11-15T01:06:05;7.50;99.90
2621;DHT22;1320;48.128;11.592;2022-11-15T01:08:31;7.50;99.90
2621;DHT22;1320;48.128;11.592;2022-11-15T01:11:05;7.50;99.90
2621;DHT22;1320;48.128;11.592;2022-11-15T01:13:32;7.50;99.90
2621;DHT22;1320;48.128;11.592;2022-11-15T01:16:04;7.60;99.90
2621;DHT22;1320;48.128;11.592;2022-11-15T01:18:30;7.60;99.90
2621;DHT22;1320;48.128;11.592;2022-11-15T01:20:56;7.60;99.90
2621;DHT22;1320;48.128;11.592;2022-11-15T01:23:21;7.50;99.90
2621;DHT22;1320;48.128;11.592;2022-11-15T01:25:47;7.50;99.90
2621;DHT22;1320;48.128;11.592;2022-11-15T01:28:13;7.50;99.90
2621;DHT22;1320;48.128;11.592;2022-11-15T01:30:38;7.50;99.90
2621;DHT22;1320;48.128;11.592;2022-11-15T01:33:04;7.50;99.90
2621;DHT22;1320;48.128;11.592;2022-11-15T01:35:30;7.50;99.90
2621;DHT22;1320;48.128;11.592;2022-11-15T01:37:55;7.50;99.90
2621;DHT22;1320;48.128;11.592;2022-11-15T01:40:21;7.50;99.90
2621;DHT22;1320;48.128;11.592;2022-11-15T01:42:47;7.40;99.90
2621;DHT22;1320;48.128;11.592;2022-11-15T01:45:14;7.40;99.90
2621;DHT22;1320;48.128;11.592;2022-11-15T01:47:45;7.40;99.90
2621;DHT22;1320;48.128;11.592;2022-11-15T01:50:17;7.40;99.90
2621;DHT22;1320;48.128;11.592;2022-11-15T01:52:43;7.40;99.90
2621;DHT22;1320;48.128;11.592;2022-11-15T01:55:13;7.40;99.90
2621;DHT22;1320;48.128;11.592;2022-11-15T01:57:42;7.30;99.90
2621;DHT22;1320;48.128;11.592;2022-11-15T02:00:10;7.30;99.90
2621;DHT22;1320;48.128;11.592;2022-11-15T02:02:37;7.30;99.90
2621;DHT22;1320;48.128;11.592;2022-11-15T02:05:04;7.30;99.90
2621;DHT22;1320;48.128;11.592;2022-11-15T02:07:31;7.30;99.90
2621;DHT22;1320;48.128;11.592;2022-11-15T02:10:09;7.30;99.90
2621;DHT22;1320;48.128;11.592;2022-11-15T02:12:36;7.20;99.90
2621;DHT22;1320;48.128;11.592;2022-11-15T02:15:03;7.10;99.90
2621;DHT22;1320;48.128;11.592;2022-11-15T02:17:32;7.00;99.90
2621;DHT22;1320;48.128;11.592;2022-11-15T02:29:05;6.90;99.90
2621;DHT22;1320;48.128;11.592;2022-11-15T02:40:11;6.80;99.90
2621;DHT22;1320;48.128;11.592;2022-11-15T02:42:47;6.80;99.90
2621;DHT22;1320;48.128;11.592;2022-11-15T02:45:39;6.80;99.90
2621;DHT22;1320;48.128;11.592;2022-11-15T02:48:06;6.70;99.90
2621;DHT22;1320;48.128;11.592;2022-11-15T02:50:32;6.70;99.90
2621;DHT22;1320;48.128;11.592;2022-11-15T02:52:59;6.70;99.90
2621;DHT22;1320;48.128;11.592;2022-11-15T03:00:34;6.70;99.90
2621;DHT22;1320;48.128;11.592;2022-11-15T03:08:30;6.70;99.90
2621;DHT22;1320;48.128;11.592;2022-11-15T03:11:15;6.80;99.90
2621;DHT22;1320;48.128;11.592;2022-11-15T03:16:42;6.80;99.90
2621;DHT22;1320;48.128;11.592;2022-11-15T03:19:34;6.80;99.90
2621;DHT22;1320;48.128;11.592;2022-11-15T03:22:04;6.80;99.90
2621;DHT22;1320;48.128;11.592;2022-11-15T03:24:34;6.90;99.90
2621;DHT22;1320;48.128;11.592;2022-11-15T03:27:02;6.90;99.90
2621;DHT22;1320;48.128;11.592;2022-11-15T03:29:32;6.90;99.90
2621;DHT22;1320;48.128;11.592;2022-11-15T03:32:04;6.90;99.90
2621;DHT22;1320;48.128;11.592;2022-11-15T03:37:07;7.00;99.90
2621;DHT22;1320;48.128;11.592;2022-11-15T03:39:33;7.00;99.90
2621;DHT22;1320;48.128;11.592;2022-11-15T03:42:22;7.00;99.90
2621;DHT22;1320;48.128;11.592;2022-11-15T03:45:21;7.00;99.90
2621;DHT22;1320;48.128;11.592;2022-11-15T03:48:02;7.00;99.90
2621;DHT22;1320;48.128;11.592;2022-11-15T03:50:29;6.90;99.90
2621;DHT22;1320;48.128;11.592;2022-11-15T03:52:55;6.90;99.90
2621;DHT22;1320;48.128;11.592;2022-11-15T03:55:22;6.90;99.90
2621;DHT22;1320;48.128;11.592;2022-11-15T03:57:50;6.90;99.90
2621;DHT22;1320;48.128;11.592;2022-11-15T04:00:16;6.90;99.90
2621;DHT22;1320;48.128;11.592;2022-11-15T04:02:42;6.90;99.90
2621;DHT22;1320;48.128;11.592;2022-11-15T04:05:08;6.90;99.90
2621;DHT22;1320;48.128;11.592;2022-11-15T04:07:34;6.90;99.90
2621;DHT22;1320;48.128;11.592;2022-11-15T04:09:59;6.90;99.90
2621;DHT22;1320;48.128;11.592;2022-11-15T04:12:41;6.90;99.90
2621;DHT22;1320;48.128;11.592;2022-11-15T04:15:11;6.90;99.90
2621;DHT22;1320;48.128;11.592;2022-11-15T04:17:44;6.80;99.90
2621;DHT22;1320;48.128;11.592;2022-11-15T04:23:00;6.80;99.90
2621;DHT22;1320;48.128;11.592;2022-11-15T04:25:45;6.80;99.90
2621;DHT22;1320;48.128;11.592;2022-11-15T04:28:11;6.80;99.90
2621;DHT22;1320;48.128;11.592;2022-11-15T04:30:37;6.80;99.90
2621;DHT22;1320;48.128;11.592;2022-11-15T04:33:03;6.80;99.90
2621;DHT22;1320;48.128;11.592;2022-11-15T04:35:29;6.80;99.90
2621;DHT22;1320;48.128;11.592;2022-11-15T04:37:56;6.80;99.90
2621;DHT22;1320;48.128;11.592;2022-11-15T04:40:21;6.80;99.90
2621;DHT22;1320;48.128;11.592;2022-11-15T04:42:47;6.70;99.90
2621;DHT22;1320;48.128;11.592;2022-11-15T04:45:13;6.70;99.90
2621;DHT22;1320;48.128;11.592;2022-11-15T04:47:39;6.60;99.90
2621;DHT22;1320;48.128;11.592;2022-11-15T04:50:05;6.50;99.90
2621;DHT22;1320;48.128;11.592;2022-11-15T04:52:30;6.50;99.90
2621;DHT22;1320;48.128;11.592;2022-11-15T04:54:56;6.40;99.90
2621;DHT22;1320;48.128;11.592;2022-11-15T04:57:22;6.40;99.90
2621;DHT22;1320;48.128;11.592;2022-11-15T04:59:47;6.30;99.90
2621;DHT22;1320;48.128;11.592;2022-11-15T05:02:13;6.30;99.90
2621;DHT22;1320;48.128;11.592;2022-11-15T05:04:39;6.30;99.90
2621;DHT22;1320;48.128;11.592;2022-11-15T05:07:04;6.30;99.90
2621;DHT22;1320;48.128;11.592;2022-11-15T05:09:30;6.20;99.90
2621;DHT22;1320;48.128;11.592;2022-11-15T05:11:56;6.10;99.90
2621;DHT22;1320;48.128;11.592;2022-11-15T05:14:21;6.10;99.90
2621;DHT22;1320;48.128;11.592;2022-11-15T05:16:47;6.10;99.90
2621;DHT22;1320;48.128;11.592;2022-11-15T05:19:13;6.10;99.90
2621;DHT22;1320;48.128;11.592;2022-11-15T05:21:38;6.10;99.90
2621;DHT22;1320;48.128;11.592;2022-11-15T05:24:04;6.10;99.90
2621;DHT22;1320;48.128;11.592;2022-11-15T05:26:30;6.10;99.90
2621;DHT22;1320;48.128;11.592;2022-11-15T05:28:57;6.20;99.90
2621;DHT22;1320;48.128;11.592;2022-11-15T05:31:24;6.20;99.90
2621;DHT22;1320;48.128;11.592;2022-11-15T05:33:51;6.20;99.90
2621;DHT22;1320;48.128;11.592;2022-11-15T05:36:41;6.30;99.90
2621;DHT22;1320;48.128;11.592;2022-11-15T05:39:07;6.30;99.90
2621;DHT22;1320;48.128;11.592;2022-11-15T05:41:38;6.40;99.90
2621;DHT22;1320;48.128;11.592;2022-11-15T05:44:07;6.40;99.90
2621;DHT22;1320;48.128;11.592;2022-11-15T05:46:35;6.50;99.90
2621;DHT22;1320;48.128;11.592;2022-11-15T05:49:02;6.50;99.90
2621;DHT22;1320;48.128;11.592;2022-11-15T05:51:30;6.50;99.90
2621;DHT22;1320;48.128;11.592;2022-11-15T05:53:57;6.50;99.90
2621;DHT22;1320;48.128;11.592;2022-11-15T05:56:24;6.60;99.90
2621;DHT22;1320;48.128;11.592;2022-11-15T05:58:50;6.50;99.90
2621;DHT22;1320;48.128;11.592;2022-11-15T06:01:16;6.50;99.90
2621;DHT22;1320;48.128;11.592;2022-11-15T06:03:42;6.50;99.90
2621;DHT22;1320;48.128;11.592;2022-11-15T06:06:08;6.40;99.90
2621;DHT22;1320;48.128;11.592;2022-11-15T06:08:33;6.40;99.90
2621;DHT22;1320;48.128;11.592;2022-11-15T06:11:04;6.40;99.90
2621;DHT22;1320;48.128;11.592;2022-11-15T06:13:30;6.40;99.90
2621;DHT22;1320;48.128;11.592;2022-11-15T06:15:56;6.30;99.90
2621;DHT22;1320;48.128;11.592;2022-11-15T06:18:22;6.30;99.90
2621;DHT22;1320;48.128;11.592;2022-11-15T06:20:47;6.30;99.90
2621;DHT22;1320;48.128;11.592;2022-11-15T06:23:13;6.40;99.90
2621;DHT22;1320;48.128;11.592;2022-11-15T06:25:38;6.40;99.90
2621;DHT22;1320;48.128;11.592;2022-11-15T06:28:04;6.40;99.90
2621;DHT22;1320;48.128;11.592;2022-11-15T06:30:30;6.40;99.90
2621;DHT22;1320;48.128;11.592;2022-11-15T06:33:03;6.40;99.90
2621;DHT22;1320;48.128;11.592;2022-11-15T06:35:30;6.40;99.90
2621;DHT22;1320;48.128;11.592;2022-11-15T06:38:01;6.40;99.90
2621;DHT22;1320;48.128;11.592;2022-11-15T06:40:27;6.40;99.90
2621;DHT22;1320;48.128;11.592;2022-11-15T06:42:58;6.40;99.90
2621;DHT22;1320;48.128;11.592;2022-11-15T06:45:24;6.40;99.90
2621;DHT22;1320;48.128;11.592;2022-11-15T06:47:50;6.50;99.90
2621;DHT22;1320;48.128;11.592;2022-11-15T06:50:16;6.50;99.90
2621;DHT22;1320;48.128;11.592;2022-11-15T06:52:41;6.50;99.90
2621;DHT22;1320;48.128;11.592;2022-11-15T06:55:08;6.70;99.90
2621;DHT22;1320;48.128;11.592;2022-11-15T06:57:33;6.70;99.90
2621;DHT22;1320;48.128;11.592;2022-11-15T06:59:59;6.70;99.90
2621;DHT22;1320;48.128;11.592;2022-11-15T07:02:25;6.80;99.90
2621;DHT22;1320;48.128;11.592;2022-11-15T07:04:51;6.80;99.90
2621;DHT22;1320;48.128;11.592;2022-11-15T07:07:19;6.80;99.90
2621;DHT22;1320;48.128;11.592;2022-11-15T07:09:44;6.90;99.90
2621;DHT22;1320;48.128;11.592;2022-11-15T07:12:10;6.90;99.90
2621;DHT22;1320;48.128;11.592;2022-11-15T07:14:36;6.80;99.90
2621;DHT22;1320;48.128;11.592;2022-11-15T07:17:04;6.80;99.90
2621;DHT22;1320;48.128;11.592;2022-11-15T07:19:31;6.80;99.90
2621;DHT22;1320;48.128;11.592;2022-11-15T07:21:56;6.80;99.90
2621;DHT22;1320;48.128;11.592;2022-11-15T07:24:22;6.80;99.90
2621;DHT22;1320;48.128;11.592;2022-11-15T07:26:48;6.90;99.90
2621;DHT22;1320;48.128;11.592;2022-11-15T07:29:13;6.90;99.90
2621;DHT22;1320;48.128;11.592;2022-11-15T07:31:39;6.80;99.90
2621;DHT22;1320;48.128;11.592;2022-11-15T07:34:05;6.90;99.90
2621;DHT22;1320;48.128;11.592;2022-11-15T07:36:30;6.90;99.90
2621;DHT22;1320;48.128;11.592;2022-11-15T07:38:56;7.00;99.90
2621;DHT22;1320;48.128;11.592;2022-11-15T07:41:22;7.00;99.90
2621;DHT22;1320;48.128;11.592;2022-11-15T07:43:51;7.10;99.90
2621;DHT22;1320;48.128;11.592;2022-11-15T07:46:16;7.20;99.90
2621;DHT22;1320;48.128;11.592;2022-11-15T07:48:42;7.30;99.90
2621;DHT22;1320;48.128;11.592;2022-11-15T07:51:11;7.30;99.90
2621;DHT22;1320;48.128;11.592;2022-11-15T07:53:38;7.40;99.90
2621;DHT22;1320;48.128;11.592;2022-11-15T07:56:06;7.50;99.90
2621;DHT22;1320;48.128;11.592;2022-11-15T07:58:36;7.60;99.90
2621;DHT22;1320;48.128;11.592;2022-11-15T08:01:03;7.70;99.90
2621;DHT22;1320;48.128;11.592;2022-11-15T08:03:29;7.80;99.90
2621;DHT22;1320;48.128;11.592;2022-11-15T08:05:55;7.90;99.90
2621;DHT22;1320;48.128;11.592;2022-11-15T08:08:20;7.90;99.90
2621;DHT22;1320;48.128;11.592;2022-11-15T08:10:46;8.00;99.90
2621;DHT22;1320;48.128;11.592;2022-11-15T08:13:12;8.10;99.90
2621;DHT22;1320;48.128;11.592;2022-11-15T08:15:38;8.20;99.90
2621;DHT22;1320;48.128;11.592;2022-11-15T08:18:08;8.30;99.90
2621;DHT22;1320;48.128;11.592;2022-11-15T08:20:35;8.50;99.90
2621;DHT22;1320;48.128;11.592;2022-11-15T08:23:02;8.60;99.90
2621;DHT22;1320;48.128;11.592;2022-11-15T08:25:30;8.70;99.90
2621;DHT22;1320;48.128;11.592;2022-11-15T08:28:00;9.00;99.90
2621;DHT22;1320;48.128;11.592;2022-11-15T08:30:26;9.20;99.90
2621;DHT22;1320;48.128;11.592;2022-11-15T08:32:53;9.60;99.90
2621;DHT22;1320;48.128;11.592;2022-11-15T08:35:27;9.80;99.90
2621;DHT22;1320;48.128;11.592;2022-11-15T08:37:54;10.00;99.90
2621;DHT22;1320;48.128;11.592;2022-11-15T08:40:20;10.30;99.90
2621;DHT22;1320;48.128;11.592;2022-11-15T08:42:47;10.50;99.90
2621;DHT22;1320;48.128;11.592;2022-11-15T08:45:16;10.70;99.90
2621;DHT22;1320;48.128;11.592;2022-11-15T08:47:41;11.00;99.90
2621;DHT22;1320;48.128;11.592;2022-11-15T08:50:07;11.20;99.90
2621;DHT22;1320;48.128;11.592;2022-11-15T08:52:33;11.50;99.90
2621;DHT22;1320;48.128;11.592;2022-11-15T08:55:02;11.80;99.90
2621;DHT22;1320;48.128;11.592;2022-11-15T08:57:29;12.10;99.90
2621;DHT22;1320;48.128;11.592;2022-11-15T08:59:57;12.50;99.90
2621;DHT22;1320;48.128;11.592;2022-11-15T09:04:49;13.30;99.90
2621;DHT22;1320;48.128;11.592;2022-11-15T09:07:15;13.70;99.90
2621;DHT22;1320;48.128;11.592;2022-11-15T09:09:41;14.20;99.90
2621;DHT22;1320;48.128;11.592;2022-11-15T09:14:33;14.90;99.30
2621;DHT22;1320;48.128;11.592;2022-11-15T09:16:59;15.20;99.20
2621;DHT22;1320;48.128;11.592;2022-11-15T09:19:25;15.60;98.90
2621;DHT22;1320;48.128;11.592;2022-11-15T09:21:51;16.10;97.20
2621;DHT22;1320;48.128;11.592;2022-11-15T09:24:17;16.60;97.50
2621;DHT22;1320;48.128;11.592;2022-11-15T09:26:43;17.00;94.90
2621;DHT22;1320;48.128;11.592;2022-11-15T09:29:09;17.20;95.40
2621;DHT22;1320;48.128;11.592;2022-11-15T09:31:35;17.30;94.80
2621;DHT22;1320;48.128;11.592;2022-11-15T09:34:00;17.40;94.70
2621;DHT22;1320;48.128;11.592;2022-11-15T09:36:26;17.50;93.80
2621;DHT22;1320;48.128;11.592;2022-11-15T09:38:52;17.50;93.30
2621;DHT22;1320;48.128;11.592;2022-11-15T09:41:28;17.30;93.00
2621;DHT22;1320;48.128;11.592;2022-11-15T09:47:28;16.80;93.30
2621;DHT22;1320;48.128;11.592;2022-11-15T09:49:59;16.70;93.30
2621;DHT22;1320;48.128;11.592;2022-11-15T09:52:25;16.40;93.60
2621;DHT22;1320;48.128;11.592;2022-11-15T09:54:52;16.20;93.70
2621;DHT22;1320;48.128;11.592;2022-11-15T10:00:19;15.70;94.30
2621;DHT22;1320;48.128;11.592;2022-11-15T10:05:18;15.20;95.10
2621;DHT22;1320;48.128;11.592;2022-11-15T10:10:25;15.10;95.30
2621;DHT22;1320;48.128;11.592;2022-11-15T10:12:52;15.00;95.20
2621;DHT22;1320;48.128;11.592;2022-11-15T10:15:19;15.10;95.30
2621;DHT22;1320;48.128;11.592;2022-11-15T10:23:13;15.90;95.10
2621;DHT22;1320;48.128;11.592;2022-11-15T10:25:39;16.20;94.70
2621;DHT22;1320;48.128;11.592;2022-11-15T10:28:22;16.50;94.20
2621;DHT22;1320;48.128;11.592;2022-11-15T10:30:53;16.60;94.10
2621;DHT22;1320;48.128;11.592;2022-11-15T10:33:35;16.60;94.10
2621;DHT22;1320;48.128;11.592;2022-11-15T10:36:14;16.50;94.00
2621;DHT22;1320;48.128;11.592;2022-11-15T10:41:17;16.80;93.30
2621;DHT22;1320;48.128;11.592;2022-11-15T10:43:43;17.00;93.30
2621;DHT22;1320;48.128;11.592;2022-11-15T10:46:20;17.10;93.30
2621;DHT22;1320;48.128;11.592;2022-11-15T10:48:46;17.30;92.90
2621;DHT22;1320;48.128;11.592;2022-11-15T10:51:27;17.60;92.80
2621;DHT22;1320;48.128;11.592;2022-11-15T10:53:56;17.80;92.00
2621;DHT22;1320;48.128;11.592;2022-11-15T10:56:25;17.90;91.90
2621;DHT22;1320;48.128;11.592;2022-11-15T10:58:54;17.90;92.10
2621;DHT22;1320;48.128;11.592;2022-11-15T11:01:25;17.90;92.20
2621;DHT22;1320;48.128;11.592;2022-11-15T11:04:02;18.00;92.30
2621;DHT22;1320;48.128;11.592;2022-11-15T11:06:28;18.10;91.90
2621;DHT22;1320;48.128;11.592;2022-11-15T11:09:03;18.30;91.90
2621;DHT22;1320;48.128;11.592;2022-11-15T11:11:50;18.40;92.00
2621;DHT22;1320;48.128;11.592;2022-11-15T11:14:35;18.60;91.80
2621;DHT22;1320;48.128;11.592;2022-11-15T11:19:48;18.70;90.90
2621;DHT22;1320;48.128;11.592;2022-11-15T11:29:02;18.80;90.00
2621;DHT22;1320;48.128;11.592;2022-11-15T11:45:20;19.10;88.70
2621;DHT22;1320;48.128;11.592;2022-11-15T11:51:24;19.30;89.10
2621;DHT22;1320;48.128;11.592;2022-11-15T11:57:00;19.40;89.20
2621;DHT22;1320;48.128;11.592;2022-11-15T12:01:57;19.50;89.40
2621;DHT22;1320;48.128;11.592;2022-11-15T12:04:30;19.50;88.40
2621;DHT22;1320;48.128;11.592;2022-11-15T12:07:16;19.50;87.60
2621;DHT22;1320;48.128;11.592;2022-11-15T12:10:15;19.50;87.70
2621;DHT22;1320;48.128;11.592;2022-11-15T12:13:21;19.60;86.70
2621;DHT22;1320;48.128;11.592;2022-11-15T12:16:08;19.60;86.50
2621;DHT22;1320;48.128;11.592;2022-11-15T12:18:36;19.70;85.60
2621;DHT22;1320;48.128;11.592;2022-11-15T12:21:07;19.70;84.30
2621;DHT22;1320;48.128;11.592;2022-11-15T12:23:49;19.80;82.90
2621;DHT22;1320;48.128;11.592;2022-11-15T12:26:34;19.80;83.50
2621;DHT22;1320;48.128;11.592;2022-11-15T12:29:05;19.80;82.50
2621;DHT22;1320;48.128;11.592;2022-11-15T12:36:43;20.20;82.50
2621;DHT22;1320;48.128;11.592;2022-11-15T12:39:14;20.30;82.30
2621;DHT22;1320;48.128;11.592;2022-11-15T12:41:45;20.40;85.40
2621;DHT22;1320;48.128;11.592;2022-11-15T12:47:24;20.70;80.70
2621;DHT22;1320;48.128;11.592;2022-11-15T12:49:50;20.90;82.30
2621;DHT22;1320;48.128;11.592;2022-11-15T12:52:16;21.00;81.30
2621;DHT22;1320;48.128;11.592;2022-11-15T12:59:51;21.40;82.20
2621;DHT22;1320;48.128;11.592;2022-11-15T13:02:21;21.40;80.90
2621;DHT22;1320;48.128;11.592;2022-11-15T13:04:48;21.50;80.90
2621;DHT22;1320;48.128;11.592;2022-11-15T13:13:03;21.70;80.80
2621;DHT22;1320;48.128;11.592;2022-11-15T13:15:52;21.70;90.80
2621;DHT22;1320;48.128;11.592;2022-11-15T13:18:35;21.60;88.80
2621;DHT22;1320;48.128;11.592;2022-11-15T13:21:02;21.60;86.60
2621;DHT22;1320;48.128;11.592;2022-11-15T13:23:52;21.50;84.40
2621;DHT22;1320;48.128;11.592;2022-11-15T13:26:18;21.50;82.10
2621;DHT22;1320;48.128;11.592;2022-11-15T13:28:50;21.60;81.00
2621;DHT22;1320;48.128;11.592;2022-11-15T13:31:36;21.60;81.10
2621;DHT22;1320;48.128;11.592;2022-11-15T13:36:49;21.80;80.80
2621;DHT22;1320;48.128;11.592;2022-11-15T13:39:32;21.90;80.80
2621;DHT22;1320;48.128;11.592;2022-11-15T13:41:58;21.80;80.30
2621;DHT22;1320;48.128;11.592;2022-11-15T13:44:32;21.70;79.80
2621;DHT22;1320;48.128;11.592;2022-11-15T13:47:14;21.60;80.30
2621;DHT22;1320;48.128;11.592;2022-11-15T13:49:40;21.40;80.10
2621;DHT22;1320;48.128;11.592;2022-11-15T13:52:09;21.20;80.20
2621;DHT22;1320;48.128;11.592;2022-11-15T13:54:46;21.00;80.60
2621;DHT22;1320;48.128;11.592;2022-11-15T13:59:51;20.50;81.60
2621;DHT22;1320;48.128;11.592;2022-11-15T14:02:21;20.10;82.50
2621;DHT22;1320;48.128;11.592;2022-11-15T14:05:17;19.90;83.30
2621;DHT22;1320;48.128;11.592;2022-11-15T14:08:03;19.50;84.50
2621;DHT22;1320;48.128;11.592;2022-11-15T14:10:37;19.20;84.20
2621;DHT22;1320;48.128;11.592;2022-11-15T14:13:09;19.00;85.10
2621;DHT22;1320;48.128;11.592;2022-11-15T14:15:37;18.80;85.10
2621;DHT22;1320;48.128;11.592;2022-11-15T14:18:04;18.60;86.00
2621;DHT22;1320;48.128;11.592;2022-11-15T14:23:01;18.40;86.90
2621;DHT22;1320;48.128;11.592;2022-11-15T14:25:29;18.30;87.00
2621;DHT22;1320;48.128;11.592;2022-11-15T14:28:42;18.30;87.10
2621;DHT22;1320;48.128;11.592;2022-11-15T14:31:10;18.20;87.50
2621;DHT22;1320;48.128;11.592;2022-11-15T14:33:37;18.10;88.20
2621;DHT22;1320;48.128;11.592;2022-11-15T14:36:15;18.10;88.30
2621;DHT22;1320;48.128;11.592;2022-11-15T14:38:42;18.10;88.30
2621;DHT22;1320;48.128;11.592;2022-11-15T14:41:26;18.00;88.70
2621;DHT22;1320;48.128;11.592;2022-11-15T14:43:52;18.00;89.00
2621;DHT22;1320;48.128;11.592;2022-11-15T14:46:18;17.90;89.50
2621;DHT22;1320;48.128;11.592;2022-11-15T14:48:44;17.90;89.60
2621;DHT22;1320;48.128;11.592;2022-11-15T14:51:16;17.80;89.20
2621;DHT22;1320;48.128;11.592;2022-11-15T14:53:43;17.80;89.40
2621;DHT22;1320;48.128;11.592;2022-11-15T14:56:10;17.70;89.00
2621;DHT22;1320;48.128;11.592;2022-11-15T14:58:37;17.70;89.20
2621;DHT22;1320;48.128;11.592;2022-11-15T15:01:24;17.60;89.50
2621;DHT22;1320;48.128;11.592;2022-11-15T15:03:51;17.50;89.70
2621;DHT22;1320;48.128;11.592;2022-11-15T15:06:18;17.50;90.00
2621;DHT22;1320;48.128;11.592;2022-11-15T15:08:44;17.40;90.00
2621;DHT22;1320;48.128;11.592;2022-11-15T15:11:23;17.30;90.10
2621;DHT22;1320;48.128;11.592;2022-11-15T15:13:49;17.30;90.20
2621;DHT22;1320;48.128;11.592;2022-11-15T15:16:15;17.20;90.30
2621;DHT22;1320;48.128;11.592;2022-11-15T15:18:41;17.10;91.50
2621;DHT22;1320;48.128;11.592;2022-11-15T15:21:24;17.00;91.70
2621;DHT22;1320;48.128;11.592;2022-11-15T15:23:51;16.90;92.70
2621;DHT22;1320;48.128;11.592;2022-11-15T15:26:19;16.80;93.40
2621;DHT22;1320;48.128;11.592;2022-11-15T15:28:45;16.60;93.70
2621;DHT22;1320;48.128;11.592;2022-11-15T15:31:10;16.50;94.00
2621;DHT22;1320;48.128;11.592;2022-11-15T15:33:37;16.40;94.50
2621;DHT22;1320;48.128;11.592;2022-11-15T15:36:03;16.30;94.80
2621;DHT22;1320;48.128;11.592;2022-11-15T15:38:29;16.20;95.20
2621;DHT22;1320;48.128;11.592;2022-11-15T15:40:54;16.10;95.60
2621;DHT22;1320;48.128;11.592;2022-11-15T15:43:20;16.00;95.90
2621;DHT22;1320;48.128;11.592;2022-11-15T15:45:46;15.80;96.20
2621;DHT22;1320;48.128;11.592;2022-11-15T15:48:14;15.70;96.40
2621;DHT22;1320;48.128;11.592;2022-11-15T15:50:41;15.60;96.70
2621;DHT22;1320;48.128;11.592;2022-11-15T15:53:09;15.50;97.30
2621;DHT22;1320;48.128;11.592;2022-11-15T15:55:36;15.40;97.40
2621;DHT22;1320;48.128;11.592;2022-11-15T15:58:02;15.30;97.70
2621;DHT22;1320;48.128;11.592;2022-11-15T16:00:28;15.20;98.10
2621;DHT22;1320;48.128;11.592;2022-11-15T16:02:54;15.10;98.70
2621;DHT22;1320;48.128;11.592;2022-11-15T16:05:21;14.90;98.50
2621;DHT22;1320;48.128;11.592;2022-11-15T16:07:47;14.90;98.90
2621;DHT22;1320;48.128;11.592;2022-11-15T16:10:19;14.70;99.10
2621;DHT22;1320;48.128;11.592;2022-11-15T16:12:46;14.50;99.30
2621;DHT22;1320;48.128;11.592;2022-11-15T16:15:11;14.50;99.40
2621;DHT22;1320;48.128;11.592;2022-11-15T16:17:41;14.40;99.50
2621;DHT22;1320;48.128;11.592;2022-11-15T16:20:22;14.40;99.70
2621;DHT22;1320;48.128;11.592;2022-11-15T16:22:48;14.30;99.70
2621;DHT22;1320;48.128;11.592;2022-11-15T16:25:14;14.30;99.80
2621;DHT22;1320;48.128;11.592;2022-11-15T16:27:39;14.30;99.90
2621;DHT22;1320;48.128;11.592;2022-11-15T16:30:14;14.30;99.90
2621;DHT22;1320;48.128;11.592;2022-11-15T16:32:40;14.30;99.90
2621;DHT22;1320;48.128;11.592;2022-11-15T16:35:10;14.30;99.90
2621;DHT22;1320;48.128;11.592;2022-11-15T16:37:36;14.30;99.90
2621;DHT22;1320;48.128;11.592;2022-11-15T16:40:01;14.30;99.90
2621;DHT22;1320;48.128;11.592;2022-11-15T16:42:27;14.30;99.90
2621;DHT22;1320;48.128;11.592;2022-11-15T16:44:53;14.30;99.90
2621;DHT22;1320;48.128;11.592;2022-11-15T16:47:19;14.30;99.90
2621;DHT22;1320;48.128;11.592;2022-11-15T16:49:45;14.30;99.90
2621;DHT22;1320;48.128;11.592;2022-11-15T16:52:11;14.30;99.90
2621;DHT22;1320;48.128;11.592;2022-11-15T16:54:37;14.20;99.90
2621;DHT22;1320;48.128;11.592;2022-11-15T16:57:03;14.20;99.90
2621;DHT22;1320;48.128;11.592;2022-11-15T16:59:28;14.20;99.90
2621;DHT22;1320;48.128;11.592;2022-11-15T17:01:56;14.20;99.90
2621;DHT22;1320;48.128;11.592;2022-11-15T17:04:21;14.20;99.90
2621;DHT22;1320;48.128;11.592;2022-11-15T17:06:48;14.10;99.90
2621;DHT22;1320;48.128;11.592;2022-11-15T17:09:21;14.10;99.90
2621;DHT22;1320;48.128;11.592;2022-11-15T17:11:50;14.10;99.90
2621;DHT22;1320;48.128;11.592;2022-11-15T17:14:16;14.10;99.90
2621;DHT22;1320;48.128;11.592;2022-11-15T17:16:42;14.10;99.90
2621;DHT22;1320;48.128;11.592;2022-11-15T17:19:16;14.00;99.90
2621;DHT22;1320;48.128;11.592;2022-11-15T17:21:43;14.00;99.90
2621;DHT22;1320;48.128;11.592;2022-11-15T17:24:09;14.00;99.90
2621;DHT22;1320;48.128;11.592;2022-11-15T17:26:35;13.90;99.90
2621;DHT22;1320;48.128;11.592;2022-11-15T17:29:01;13.90;99.90
2621;DHT22;1320;48.128;11.592;2022-11-15T17:31:29;13.90;99.90
2621;DHT22;1320;48.128;11.592;2022-11-15T17:33:57;13.80;99.90
2621;DHT22;1320;48.128;11.592;2022-11-15T17:36:23;13.80;99.90
2621;DHT22;1320;48.128;11.592;2022-11-15T17:38:49;13.70;99.90
2621;DHT22;1320;48.128;11.592;2022-11-15T17:41:17;13.70;99.90
2621;DHT22;1320;48.128;11.592;2022-11-15T17:43:43;13.60;99.90
2621;DHT22;1320;48.128;11.592;2022-11-15T17:46:14;13.40;99.90
2621;DHT22;1320;48.128;11.592;2022-11-15T17:48:40;13.30;99.90
2621;DHT22;1320;48.128;11.592;2022-11-15T17:51:08;13.10;99.90
2621;DHT22;1320;48.128;11.592;2022-11-15T17:53:36;13.00;99.90
2621;DHT22;1320;48.128;11.592;2022-11-15T17:56:21;13.00;99.90
2621;DHT22;1320;48.128;11.592;2022-11-15T17:58:56;12.80;99.90
2621;DHT22;1320;48.128;11.592;2022-11-15T18:01:28;12.80;99.90
2621;DHT22;1320;48.128;11.592;2022-11-15T18:03:54;12.70;99.90
2621;DHT22;1320;48.128;11.592;2022-11-15T18:06:22;12.60;99.90